createdAt,value
2023-03-07T00:01:03.161Z,60.20
2023-03-07T00:06:10.514Z,66.83
2023-03-07T00:11:13.246Z,70.77
2023-03-07T00:16:18.177Z,68.37
2023-03-07T00:21:22.478Z,68.47
2023-03-07T00:26:25.974Z,54.90
2023-03-07T00:31:28.758Z,51.50
2023-03-07T00:36:31.610Z,59.63
2023-03-07T00:41:34.896Z,52.83
2023-03-07T00:46:37.445Z,46.70
2023-03-07T00:51:39.988Z,51.00
2023-03-07T00:56:43.100Z,57.63
2023-03-07T01:01:45.685Z,41.87
2023-03-07T01:06:48.479Z,46.70
2023-03-07T01:11:51.025Z,58.27
2023-03-07T01:16:54.034Z,47.80
2023-03-07T01:21:56.606Z,56.27
2023-03-07T01:26:59.461Z,50.03
2023-03-07T01:32:02.156Z,40.93
2023-03-07T01:37:05.170Z,44.60
2023-03-07T01:42:08.280Z,40.27
2023-03-07T01:47:10.967Z,31.20
2023-03-07T01:52:30.181Z,36.50
2023-03-07T01:57:37.733Z,33.80
2023-03-07T02:02:46.045Z,33.70
2023-03-07T02:07:56.075Z,51.10
2023-03-07T02:13:02.665Z,38.07
2023-03-07T02:18:06.558Z,46.53
2023-03-07T02:23:13.832Z,37.60
2023-03-07T02:28:19.152Z,32.97
2023-03-07T02:33:25.063Z,34.50
2023-03-07T02:38:38.178Z,53.13
2023-03-07T02:43:41.598Z,47.77
2023-03-07T02:48:44.867Z,38.70
2023-03-07T02:53:47.719Z,32.17
2023-03-07T02:58:50.505Z,42.00
2023-03-07T03:03:53.170Z,33.03
2023-03-07T03:08:55.695Z,29.47
2023-03-07T03:13:58.291Z,37.70
2023-03-07T03:19:01.384Z,28.03
2023-03-07T03:24:07.937Z,37.10
2023-03-07T03:29:11.619Z,32.23
2023-03-07T03:34:14.785Z,36.07
2023-03-07T03:39:17.552Z,33.13
2023-03-07T03:44:24.746Z,24.27
2023-03-07T03:49:27.781Z,31.37
2023-03-07T03:54:31.581Z,38.87
2023-03-07T03:59:34.246Z,26.23
2023-03-07T04:04:37.073Z,33.30
2023-03-07T04:09:40.626Z,34.53
2023-03-07T04:14:44.132Z,35.83
2023-03-07T04:19:48.025Z,31.17
2023-03-07T04:24:50.842Z,33.87
2023-03-07T04:29:53.684Z,29.17
2023-03-07T04:34:57.480Z,30.07
2023-03-07T04:40:00.453Z,21.20
2023-03-07T04:45:04.788Z,23.27
2023-03-07T04:50:08.771Z,23.10
2023-03-07T04:55:12.632Z,20.57
2023-03-07T05:00:16.059Z,23.47
2023-03-07T05:05:19.211Z,22.60
2023-03-07T05:10:21.773Z,21.80
2023-03-07T05:15:24.493Z,15.00
2023-03-07T05:20:27.476Z,16.97
2023-03-07T05:25:30.253Z,12.53
2023-03-07T05:30:32.851Z,17.40
2023-03-07T05:35:35.540Z,16.07
2023-03-07T05:40:40.231Z,16.10
2023-03-07T05:45:44.045Z,21.00
2023-03-07T05:50:46.847Z,20.97
2023-03-07T05:55:49.693Z,19.73
2023-03-07T06:00:54.024Z,20.47
2023-03-07T06:05:57.736Z,19.03
2023-03-07T06:11:00.534Z,26.80
2023-03-07T06:16:03.992Z,19.13
2023-03-07T06:21:08.691Z,22.80
2023-03-07T06:26:16.393Z,23.37
2023-03-07T06:31:22.770Z,29.50
2023-03-07T06:36:25.538Z,27.20
2023-03-07T06:41:32.176Z,31.83
2023-03-07T06:46:36.923Z,29.00
2023-03-07T06:51:45.715Z,31.93
2023-03-07T06:56:48.676Z,31.00
2023-03-07T07:01:55.634Z,41.27
2023-03-07T07:06:59.019Z,55.73
2023-03-07T07:12:04.998Z,33.07
2023-03-07T07:17:09.623Z,32.97
2023-03-07T07:22:12.281Z,32.93
2023-03-07T07:27:15.060Z,28.57
2023-03-07T07:32:18.701Z,34.70
2023-03-07T07:37:21.727Z,33.50
2023-03-07T07:42:24.594Z,31.43
2023-03-07T07:47:40.023Z,35.73
2023-03-07T07:52:42.657Z,30.57
2023-03-07T07:57:45.323Z,29.83
2023-03-07T08:02:51.914Z,26.87
2023-03-07T08:07:54.439Z,29.63
2023-03-07T08:12:56.962Z,29.43
2023-03-07T08:17:59.509Z,29.27
2023-03-07T08:23:02.144Z,30.10
2023-03-07T08:28:05.485Z,36.33
2023-03-07T08:33:08.110Z,37.40
2023-03-07T08:38:10.723Z,39.73
2023-03-07T08:43:13.341Z,38.13
2023-03-07T08:48:16.136Z,36.53
2023-03-07T08:53:18.635Z,32.20
2023-03-07T08:58:21.242Z,40.40
2023-03-07T09:03:23.876Z,36.03
2023-03-07T09:08:26.715Z,40.37
2023-03-07T09:13:29.673Z,36.50
2023-03-07T09:18:32.403Z,29.53
2023-03-07T09:23:35.080Z,36.07
2023-03-07T09:28:37.633Z,30.80
2023-03-07T09:33:40.836Z,31.87
2023-03-07T09:38:43.947Z,33.00
2023-03-07T09:43:56.336Z,33.53
2023-03-07T09:49:20.052Z,18.77
2023-03-07T09:54:36.396Z,21.47
2023-03-07T09:59:44.236Z,28.17
2023-03-07T10:04:58.574Z,29.83
2023-03-07T10:10:05.358Z,36.43
2023-03-07T10:15:47.365Z,22.60
2023-03-07T10:20:58.680Z,13.83
2023-03-07T10:26:47.818Z,13.83
2023-03-07T10:32:11.432Z,22.17
2023-03-07T10:37:20.708Z,38.33
2023-03-07T10:42:32.200Z,22.00
2023-03-07T10:47:34.644Z,30.70
2023-03-07T10:52:46.367Z,29.03
2023-03-07T10:57:48.874Z,23.70
2023-03-07T11:02:51.419Z,20.83
2023-03-07T11:07:54.539Z,27.77
2023-03-07T11:12:58.122Z,24.87
2023-03-07T11:18:00.753Z,24.77
2023-03-07T11:23:26.229Z,17.03
2023-03-07T11:28:32.219Z,25.20
2023-03-07T11:33:44.303Z,23.50
2023-03-07T11:39:19.519Z,30.37
2023-03-07T11:44:46.861Z,25.53
2023-03-07T11:50:17.585Z,24.33
2023-03-07T11:55:36.432Z,27.63
2023-03-07T12:00:53.873Z,25.73
2023-03-07T12:06:08.529Z,25.70
2023-03-07T12:11:13.805Z,28.07
2023-03-07T12:16:44.443Z,16.30
2023-03-07T12:22:05.158Z,21.97
2023-03-07T12:27:17.343Z,29.10
2023-03-07T12:32:28.004Z,18.10
2023-03-07T12:38:05.790Z,19.80
2023-03-07T12:43:37.625Z,19.60
2023-03-07T12:48:48.975Z,27.47
2023-03-07T12:54:08.958Z,26.80
2023-03-07T12:59:13.726Z,27.67
2023-03-07T13:04:36.938Z,23.20
2023-03-07T13:09:48.084Z,28.60
2023-03-07T13:15:01.181Z,24.43
2023-03-07T13:20:15.913Z,23.47
2023-03-07T13:25:21.422Z,30.27
2023-03-07T13:30:29.930Z,24.10
2023-03-07T13:35:32.484Z,26.17
2023-03-07T13:40:34.995Z,26.13
2023-03-07T13:45:37.660Z,26.60
2023-03-07T13:51:04.115Z,21.83
2023-03-07T13:56:16.857Z,23.83
2023-03-07T14:01:23.226Z,23.67
2023-03-07T14:06:37.669Z,25.17
2023-03-07T14:11:45.832Z,20.20
2023-03-07T14:17:43.106Z,24.73
2023-03-07T14:23:20.967Z,24.87
2023-03-07T14:28:29.646Z,23.80
2023-03-07T14:33:34.758Z,26.73
2023-03-07T14:38:40.474Z,23.77
2023-03-07T14:44:15.050Z,27.10
2023-03-07T14:49:39.085Z,20.43
2023-03-07T14:54:45.839Z,17.03
2023-03-07T15:00:28.855Z,24.33
2023-03-07T15:05:57.496Z,19.17
2023-03-07T15:11:06.114Z,23.37
2023-03-07T15:16:14.062Z,20.30
2023-03-07T15:21:20.796Z,16.50
2023-03-07T15:26:27.989Z,17.40
2023-03-07T15:31:47.862Z,16.73
2023-03-07T15:36:51.351Z,25.03
2023-03-07T15:42:02.173Z,19.07
2023-03-07T15:47:14.520Z,23.37
2023-03-07T15:52:32.692Z,24.73
2023-03-07T15:57:48.705Z,20.27
2023-03-07T16:02:51.313Z,17.33
2023-03-07T16:07:57.991Z,20.10
2023-03-07T16:13:01.702Z,24.63
2023-03-07T16:18:05.544Z,31.57
2023-03-07T16:23:12.942Z,26.80
2023-03-07T16:28:15.673Z,20.00
2023-03-07T16:33:18.200Z,26.47
2023-03-07T16:38:21.422Z,22.10
2023-03-07T16:43:36.364Z,21.70
2023-03-07T16:48:38.927Z,20.87
2023-03-07T16:53:41.419Z,15.47
2023-03-07T16:58:44.488Z,14.53
2023-03-07T17:03:47.043Z,15.73
2023-03-07T17:08:53.192Z,13.87
2023-03-07T17:13:59.165Z,14.47
2023-03-07T17:19:01.833Z,14.10
2023-03-07T17:24:04.354Z,12.63
2023-03-07T17:29:13.414Z,10.73
2023-03-07T17:34:25.006Z,13.90
2023-03-07T17:39:29.736Z,14.43
2023-03-07T17:44:32.910Z,16.57
2023-03-07T17:49:37.917Z,15.57
2023-03-07T17:54:40.669Z,12.67
2023-03-07T17:59:43.300Z,13.47
2023-03-07T18:04:46.249Z,14.83
2023-03-07T18:09:56.101Z,17.43
2023-03-07T18:15:13.146Z,16.57
2023-03-07T18:20:17.554Z,12.97
2023-03-07T18:25:20.126Z,10.87
2023-03-07T18:30:22.936Z,11.93
2023-03-07T18:35:25.871Z,16.90
2023-03-07T18:40:28.374Z,13.77
2023-03-07T18:45:30.940Z,11.97
2023-03-07T18:50:33.463Z,11.63
2023-03-07T18:55:38.400Z,11.67
2023-03-07T19:00:41.008Z,12.07
2023-03-07T19:05:48.848Z,12.33
2023-03-07T19:10:51.378Z,13.30
2023-03-07T19:16:19.822Z,12.37
2023-03-07T19:21:25.174Z,13.83
2023-03-07T19:26:27.818Z,13.23
2023-03-07T19:31:32.242Z,11.50
2023-03-07T19:36:35.510Z,10.30
2023-03-07T19:41:39.636Z,11.90
2023-03-07T19:46:46.252Z,15.67
2023-03-07T19:51:49.026Z,12.40
2023-03-07T19:56:52.022Z,11.37
2023-03-07T20:01:54.861Z,13.83
2023-03-07T20:06:57.419Z,10.50
2023-03-07T20:12:00.760Z,10.80
2023-03-07T20:17:03.309Z,10.77
2023-03-07T20:22:05.891Z,10.07
2023-03-07T20:27:08.421Z,12.33
2023-03-07T20:32:11.711Z,15.30
2023-03-07T20:37:14.419Z,15.67
2023-03-07T20:42:17.118Z,11.90
2023-03-07T20:47:19.866Z,15.07
2023-03-07T20:52:24.225Z,18.83
2023-03-07T20:57:27.062Z,14.17
2023-03-07T21:02:29.656Z,11.07
2023-03-07T21:07:32.080Z,9.10
2023-03-07T21:12:36.227Z,11.43
2023-03-07T21:17:38.662Z,12.20
2023-03-07T21:22:41.190Z,10.97
2023-03-07T21:27:43.582Z,16.13
2023-03-07T21:32:46.221Z,14.73
2023-03-07T21:37:48.766Z,9.63
2023-03-07T21:42:51.410Z,17.27
2023-03-07T21:47:54.339Z,13.40
2023-03-07T21:52:57.251Z,10.27
2023-03-07T21:57:59.682Z,10.63
2023-03-07T22:03:02.473Z,10.23
2023-03-07T22:08:05.205Z,13.93
2023-03-07T22:13:08.101Z,9.07
2023-03-07T22:18:10.666Z,8.50
2023-03-07T22:23:13.180Z,13.67
2023-03-07T22:28:19.342Z,6.27
2023-03-07T22:33:21.830Z,10.03
2023-03-07T22:38:26.091Z,12.37
2023-03-07T22:43:31.601Z,8.73
2023-03-07T22:48:34.435Z,10.70
2023-03-07T22:53:36.929Z,7.97
2023-03-07T22:58:39.476Z,10.47
2023-03-07T23:03:42.464Z,10.63
2023-03-07T23:08:47.065Z,11.33
2023-03-07T23:13:49.886Z,8.70
2023-03-07T23:18:55.005Z,7.83
2023-03-07T23:23:59.160Z,7.40
2023-03-07T23:29:01.957Z,7.80
2023-03-07T23:34:15.573Z,11.90
2023-03-07T23:39:19.095Z,10.33
2023-03-07T23:44:21.672Z,9.33
2023-03-07T23:49:24.245Z,8.63
2023-03-07T23:54:26.751Z,8.10
2023-03-07T23:59:29.225Z,8.77
